sensor_id;sensor_type;location;lat;lon;timestamp;pressure;altitude;pressure_sealevel;temperature;humidity
39949;BME280;29070;48.102;-1.652;2023-03-17T00:02:03;100277.88;;;12.63;67.17
39949;BME280;29070;48.102;-1.652;2023-03-17T00:07:04;100251.97;;;12.59;67.32
39949;BME280;29070;48.102;-1.652;2023-03-17T00:12:08;100246.13;;;12.57;67.43
39949;BME280;29070;48.102;-1.652;2023-03-17T00:17:12;100242.88;;;12.55;67.62
39949;BME280;29070;48.102;-1.652;2023-03-17T00:22:17;100240.13;;;12.50;67.72
39949;BME280;29070;48.102;-1.652;2023-03-17T00:27:17;100256.34;;;12.47;67.78
39949;BME280;29070;48.102;-1.652;2023-03-17T00:32:18;100262.03;;;12.44;67.86
39949;BME280;29070;48.102;-1.652;2023-03-17T00:37:19;100251.94;;;12.41;67.83
39949;BME280;29070;48.102;-1.652;2023-03-17T00:42:20;100263.06;;;12.43;67.97
39949;BME280;29070;48.102;-1.652;2023-03-17T00:47:20;100270.59;;;12.39;67.98
39949;BME280;29070;48.102;-1.652;2023-03-17T00:52:21;100250.41;;;12.33;68.16
39949;BME280;29070;48.102;-1.652;2023-03-17T00:57:22;100226.94;;;12.32;68.29
39949;BME280;29070;48.102;-1.652;2023-03-17T01:02:22;100211.59;;;12.29;68.60
39949;BME280;29070;48.102;-1.652;2023-03-17T01:07:23;100217.28;;;12.26;68.47
39949;BME280;29070;48.102;-1.652;2023-03-17T01:12:23;100216.94;;;12.22;68.78
39949;BME280;29070;48.102;-1.652;2023-03-17T01:17:25;100205.59;;;12.22;68.83
39949;BME280;29070;48.102;-1.652;2023-03-17T01:22:25;100218.59;;;12.16;68.89
39949;BME280;29070;48.102;-1.652;2023-03-17T01:27:26;100219.25;;;12.12;69.06
39949;BME280;29070;48.102;-1.652;2023-03-17T01:32:26;100223.75;;;12.05;69.32
39949;BME280;29070;48.102;-1.652;2023-03-17T01:37:27;100235.28;;;12.04;69.28
39949;BME280;29070;48.102;-1.652;2023-03-17T01:42:28;100222.38;;;12.02;69.17
39949;BME280;29070;48.102;-1.652;2023-03-17T01:47:28;100209.88;;;11.97;69.39
39949;BME280;29070;48.102;-1.652;2023-03-17T01:52:31;100214.75;;;11.94;69.39
39949;BME280;29070;48.102;-1.652;2023-03-17T02:02:41;100195.56;;;11.87;69.71
39949;BME280;29070;48.102;-1.652;2023-03-17T02:07:43;100195.19;;;11.83;69.74
39949;BME280;29070;48.102;-1.652;2023-03-17T02:12:45;100172.78;;;11.80;69.71
39949;BME280;29070;48.102;-1.652;2023-03-17T02:17:47;100161.66;;;11.78;70.08
39949;BME280;29070;48.102;-1.652;2023-03-17T02:22:50;100150.56;;;11.76;70.21
39949;BME280;29070;48.102;-1.652;2023-03-17T02:27:58;100159.47;;;11.75;70.21
39949;BME280;29070;48.102;-1.652;2023-03-17T02:33:01;100168.16;;;11.76;70.37
39949;BME280;29070;48.102;-1.652;2023-03-17T02:38:02;100166.78;;;11.73;70.39
39949;BME280;29070;48.102;-1.652;2023-03-17T02:43:03;100158.28;;;11.71;70.46
39949;BME280;29070;48.102;-1.652;2023-03-17T02:48:04;100151.28;;;11.65;70.57
39949;BME280;29070;48.102;-1.652;2023-03-17T02:53:05;100142.81;;;11.63;70.79
39949;BME280;29070;48.102;-1.652;2023-03-17T02:58:06;100155.94;;;11.63;70.80
39949;BME280;29070;48.102;-1.652;2023-03-17T03:03:07;100157.53;;;11.64;71.02
39949;BME280;29070;48.102;-1.652;2023-03-17T03:08:08;100150.69;;;11.63;71.07
39949;BME280;29070;48.102;-1.652;2023-03-17T03:13:10;100138.56;;;11.62;71.11
39949;BME280;29070;48.102;-1.652;2023-03-17T03:18:11;100123.59;;;11.62;71.11
39949;BME280;29070;48.102;-1.652;2023-03-17T03:23:12;100127.03;;;11.63;71.26
39949;BME280;29070;48.102;-1.652;2023-03-17T03:28:13;100126.44;;;11.61;71.36
39949;BME280;29070;48.102;-1.652;2023-03-17T03:33:14;100126.44;;;11.61;71.49
39949;BME280;29070;48.102;-1.652;2023-03-17T03:38:15;100127.44;;;11.60;71.56
39949;BME280;29070;48.102;-1.652;2023-03-17T03:43:15;100134.97;;;11.56;71.86
39949;BME280;29070;48.102;-1.652;2023-03-17T03:48:16;100147.31;;;11.56;71.84
39949;BME280;29070;48.102;-1.652;2023-03-17T03:53:16;100152.34;;;11.57;71.85
39949;BME280;29070;48.102;-1.652;2023-03-17T03:58:17;100151.53;;;11.57;71.82
39949;BME280;29070;48.102;-1.652;2023-03-17T04:03:17;100155.19;;;11.56;71.84
39949;BME280;29070;48.102;-1.652;2023-03-17T04:08:18;100165.75;;;11.49;71.81
39949;BME280;29070;48.102;-1.652;2023-03-17T04:13:18;100174.25;;;11.44;71.65
39949;BME280;29070;48.102;-1.652;2023-03-17T04:18:18;100199.00;;;11.37;71.98
39949;BME280;29070;48.102;-1.652;2023-03-17T04:23:19;100193.94;;;11.35;72.13
39949;BME280;29070;48.102;-1.652;2023-03-17T04:28:20;100186.06;;;11.35;72.09
39949;BME280;29070;48.102;-1.652;2023-03-17T04:33:21;100185.47;;;11.33;72.19
39949;BME280;29070;48.102;-1.652;2023-03-17T04:38:21;100167.50;;;11.30;72.20
39949;BME280;29070;48.102;-1.652;2023-03-17T04:43:22;100172.75;;;11.30;72.37
39949;BME280;29070;48.102;-1.652;2023-03-17T04:48:22;100149.72;;;11.32;72.42
39949;BME280;29070;48.102;-1.652;2023-03-17T04:53:22;100133.97;;;11.32;72.51
39949;BME280;29070;48.102;-1.652;2023-03-17T04:58:23;100153.94;;;11.33;72.50
39949;BME280;29070;48.102;-1.652;2023-03-17T05:03:24;100154.97;;;11.32;72.64
39949;BME280;29070;48.102;-1.652;2023-03-17T05:08:25;100178.47;;;11.27;72.61
39949;BME280;29070;48.102;-1.652;2023-03-17T05:13:27;100180.72;;;11.23;72.74
39949;BME280;29070;48.102;-1.652;2023-03-17T05:18:28;100195.25;;;11.19;72.71
39949;BME280;29070;48.102;-1.652;2023-03-17T05:23:28;100193.47;;;11.20;72.73
39949;BME280;29070;48.102;-1.652;2023-03-17T05:28:29;100183.00;;;11.13;72.82
39949;BME280;29070;48.102;-1.652;2023-03-17T05:33:29;100174.31;;;11.13;72.73
39949;BME280;29070;48.102;-1.652;2023-03-17T05:38:30;100171.09;;;11.11;72.97
39949;BME280;29070;48.102;-1.652;2023-03-17T05:43:30;100184.81;;;11.13;73.18
39949;BME280;29070;48.102;-1.652;2023-03-17T05:48:31;100191.25;;;11.17;73.27
39949;BME280;29070;48.102;-1.652;2023-03-17T05:53:32;100202.34;;;11.19;73.42
39949;BME280;29070;48.102;-1.652;2023-03-17T05:58:32;100203.75;;;11.21;73.42
39949;BME280;29070;48.102;-1.652;2023-03-17T06:03:33;100203.75;;;11.21;73.66
39949;BME280;29070;48.102;-1.652;2023-03-17T06:08:33;100183.16;;;11.18;73.80
39949;BME280;29070;48.102;-1.652;2023-03-17T06:13:33;100183.34;;;11.23;73.85
39949;BME280;29070;48.102;-1.652;2023-03-17T06:18:34;100196.84;;;11.27;73.92
39949;BME280;29070;48.102;-1.652;2023-03-17T06:23:34;100185.31;;;11.28;73.91
39949;BME280;29070;48.102;-1.652;2023-03-17T06:28:35;100169.91;;;11.32;74.07
39949;BME280;29070;48.102;-1.652;2023-03-17T06:33:36;100174.38;;;11.31;73.97
39949;BME280;29070;48.102;-1.652;2023-03-17T06:38:37;100181.03;;;11.34;74.13
39949;BME280;29070;48.102;-1.652;2023-03-17T06:43:38;100183.22;;;11.37;74.09
39949;BME280;29070;48.102;-1.652;2023-03-17T06:48:38;100175.13;;;11.38;74.03
39949;BME280;29070;48.102;-1.652;2023-03-17T06:53:39;100184.03;;;11.37;74.12
39949;BME280;29070;48.102;-1.652;2023-03-17T06:58:39;100194.53;;;11.37;74.15
39949;BME280;29070;48.102;-1.652;2023-03-17T07:03:40;100189.53;;;11.36;74.34
39949;BME280;29070;48.102;-1.652;2023-03-17T07:08:40;100205.03;;;11.37;74.36
39949;BME280;29070;48.102;-1.652;2023-03-17T07:13:41;100200.81;;;11.36;74.46
39949;BME280;29070;48.102;-1.652;2023-03-17T07:18:41;100206.25;;;11.41;74.41
39949;BME280;29070;48.102;-1.652;2023-03-17T07:23:42;100197.72;;;11.46;74.56
39949;BME280;29070;48.102;-1.652;2023-03-17T07:28:42;100188.81;;;11.47;74.53
39949;BME280;29070;48.102;-1.652;2023-03-17T07:33:43;100198.09;;;11.50;74.49
39949;BME280;29070;48.102;-1.652;2023-03-17T07:38:44;100194.88;;;11.48;74.49
39949;BME280;29070;48.102;-1.652;2023-03-17T07:43:44;100204.38;;;11.49;74.53
39949;BME280;29070;48.102;-1.652;2023-03-17T07:48:45;100209.06;;;11.47;74.62
39949;BME280;29070;48.102;-1.652;2023-03-17T07:53:45;100217.53;;;11.49;74.49
39949;BME280;29070;48.102;-1.652;2023-03-17T07:58:46;100228.03;;;11.49;74.59
39949;BME280;29070;48.102;-1.652;2023-03-17T08:03:47;100240.97;;;11.50;74.72
39949;BME280;29070;48.102;-1.652;2023-03-17T08:08:47;100255.31;;;11.48;74.61
39949;BME280;29070;48.102;-1.652;2023-03-17T08:13:47;100262.19;;;11.49;74.81
39949;BME280;29070;48.102;-1.652;2023-03-17T08:18:48;100280.16;;;11.52;74.80
39949;BME280;29070;48.102;-1.652;2023-03-17T08:23:49;100277.97;;;11.49;74.87
39949;BME280;29070;48.102;-1.652;2023-03-17T08:28:49;100277.31;;;11.53;74.83
39949;BME280;29070;48.102;-1.652;2023-03-17T08:33:52;100273.31;;;11.51;74.86
39949;BME280;29070;48.102;-1.652;2023-03-17T08:38:53;100268.03;;;11.51;75.05
39949;BME280;29070;48.102;-1.652;2023-03-17T08:43:54;100243.97;;;11.54;75.09
39949;BME280;29070;48.102;-1.652;2023-03-17T08:48:56;100212.19;;;11.55;75.09
39949;BME280;29070;48.102;-1.652;2023-03-17T08:53:57;100185.66;;;11.63;75.19
39949;BME280;29070;48.102;-1.652;2023-03-17T08:58:59;100184.94;;;11.75;75.32
39949;BME280;29070;48.102;-1.652;2023-03-17T09:04:00;100201.09;;;11.78;75.26
39949;BME280;29070;48.102;-1.652;2023-03-17T09:09:00;100231.22;;;11.82;75.30
39949;BME280;29070;48.102;-1.652;2023-03-17T09:14:01;100232.97;;;11.95;75.45
39949;BME280;29070;48.102;-1.652;2023-03-17T09:19:02;100244.47;;;12.19;75.85
39949;BME280;29070;48.102;-1.652;2023-03-17T09:24:03;100262.56;;;12.53;76.05
39949;BME280;29070;48.102;-1.652;2023-03-17T09:29:04;100266.72;;;12.79;75.90
39949;BME280;29070;48.102;-1.652;2023-03-17T09:34:04;100261.72;;;12.89;75.59
39949;BME280;29070;48.102;-1.652;2023-03-17T09:39:05;100268.06;;;13.19;75.87
39949;BME280;29070;48.102;-1.652;2023-03-17T09:54:34;100278.41;;;14.04;75.23
39949;BME280;29070;48.102;-1.652;2023-03-17T09:59:40;100268.50;;;14.23;74.71
39949;BME280;29070;48.102;-1.652;2023-03-17T10:04:41;100289.50;;;14.54;74.70
39949;BME280;29070;48.102;-1.652;2023-03-17T10:15:24;100292.75;;;15.08;74.26
39949;BME280;29070;48.102;-1.652;2023-03-17T10:20:29;100290.00;;;15.32;73.37
39949;BME280;29070;48.102;-1.652;2023-03-17T10:25:34;100291.50;;;15.56;72.79
39949;BME280;29070;48.102;-1.652;2023-03-17T10:30:35;100285.78;;;15.76;72.56
39949;BME280;29070;48.102;-1.652;2023-03-17T10:35:36;100285.13;;;15.86;72.18
39949;BME280;29070;48.102;-1.652;2023-03-17T10:40:38;100287.38;;;15.94;71.85
39949;BME280;29070;48.102;-1.652;2023-03-17T10:45:47;100293.31;;;16.01;71.28
39949;BME280;29070;48.102;-1.652;2023-03-17T10:50:55;100300.28;;;16.25;71.16
39949;BME280;29070;48.102;-1.652;2023-03-17T10:55:58;100303.72;;;16.25;70.82
39949;BME280;29070;48.102;-1.652;2023-03-17T11:06:16;100299.53;;;16.29;70.45
39949;BME280;29070;48.102;-1.652;2023-03-17T11:11:22;100299.72;;;16.06;69.77
39949;BME280;29070;48.102;-1.652;2023-03-17T11:16:25;100312.56;;;15.80;69.79
39949;BME280;29070;48.102;-1.652;2023-03-17T11:21:37;100314.13;;;15.64;69.67
39949;BME280;29070;48.102;-1.652;2023-03-17T11:32:25;100319.97;;;15.66;69.60
39949;BME280;29070;48.102;-1.652;2023-03-17T11:58:47;100297.81;;;16.79;66.88
39949;BME280;29070;48.102;-1.652;2023-03-17T12:04:10;100304.69;;;16.97;65.14
39949;BME280;29070;48.102;-1.652;2023-03-17T12:09:41;100307.78;;;17.11;64.26
39949;BME280;29070;48.102;-1.652;2023-03-17T12:14:50;100301.13;;;17.08;64.82
39949;BME280;29070;48.102;-1.652;2023-03-17T12:20:04;100296.13;;;17.39;64.87
39949;BME280;29070;48.102;-1.652;2023-03-17T12:35:44;100294.00;;;17.96;63.70
39949;BME280;29070;48.102;-1.652;2023-03-17T12:56:46;100269.78;;;18.82;61.69
39949;BME280;29070;48.102;-1.652;2023-03-17T13:01:55;100274.91;;;18.99;59.01
39949;BME280;29070;48.102;-1.652;2023-03-17T13:12:05;100268.31;;;18.54;59.28
39949;BME280;29070;48.102;-1.652;2023-03-17T13:22:30;100266.81;;;18.26;58.64
39949;BME280;29070;48.102;-1.652;2023-03-17T13:32:34;100247.50;;;18.36;59.08
39949;BME280;29070;48.102;-1.652;2023-03-17T13:53:30;100230.88;;;18.13;57.47
39949;BME280;29070;48.102;-1.652;2023-03-17T13:58:49;100240.59;;;17.92;57.73
39949;BME280;29070;48.102;-1.652;2023-03-17T14:03:50;100242.25;;;17.66;58.60
39949;BME280;29070;48.102;-1.652;2023-03-17T14:08:59;100233.59;;;17.48;59.96
39949;BME280;29070;48.102;-1.652;2023-03-17T14:19:22;100237.50;;;17.08;60.70
39949;BME280;29070;48.102;-1.652;2023-03-17T14:24:28;100235.59;;;16.82;61.04
39949;BME280;29070;48.102;-1.652;2023-03-17T14:29:30;100242.78;;;16.64;61.78
39949;BME280;29070;48.102;-1.652;2023-03-17T14:34:31;100247.59;;;16.67;62.04
39949;BME280;29070;48.102;-1.652;2023-03-17T14:39:32;100254.44;;;16.63;62.58
39949;BME280;29070;48.102;-1.652;2023-03-17T14:44:42;100258.56;;;16.54;63.22
39949;BME280;29070;48.102;-1.652;2023-03-17T14:49:42;100247.16;;;16.53;63.10
39949;BME280;29070;48.102;-1.652;2023-03-17T14:54:43;100250.53;;;16.49;63.00
39949;BME280;29070;48.102;-1.652;2023-03-17T14:59:55;100252.03;;;16.39;63.79
39949;BME280;29070;48.102;-1.652;2023-03-17T15:05:23;100249.81;;;16.31;63.92
39949;BME280;29070;48.102;-1.652;2023-03-17T15:10:26;100250.91;;;16.35;64.01
39949;BME280;29070;48.102;-1.652;2023-03-17T15:15:32;100249.91;;;16.42;64.22
39949;BME280;29070;48.102;-1.652;2023-03-17T15:20:33;100263.94;;;16.20;64.36
39949;BME280;29070;48.102;-1.652;2023-03-17T15:25:40;100264.28;;;16.07;64.62
39949;BME280;29070;48.102;-1.652;2023-03-17T15:30:43;100265.50;;;15.99;64.61
39949;BME280;29070;48.102;-1.652;2023-03-17T15:35:44;100271.91;;;16.03;65.05
39949;BME280;29070;48.102;-1.652;2023-03-17T15:40:44;100265.75;;;15.97;64.89
39949;BME280;29070;48.102;-1.652;2023-03-17T15:45:45;100270.41;;;15.90;64.44
39949;BME280;29070;48.102;-1.652;2023-03-17T15:50:46;100258.84;;;15.79;64.43
39949;BME280;29070;48.102;-1.652;2023-03-17T15:55:48;100260.19;;;15.82;64.51
39949;BME280;29070;48.102;-1.652;2023-03-17T16:00:53;100255.53;;;15.89;64.20
39949;BME280;29070;48.102;-1.652;2023-03-17T16:05:54;100245.94;;;15.83;64.40
39949;BME280;29070;48.102;-1.652;2023-03-17T16:10:55;100252.34;;;15.87;64.11
39949;BME280;29070;48.102;-1.652;2023-03-17T16:15:58;100252.59;;;15.86;64.32
39949;BME280;29070;48.102;-1.652;2023-03-17T16:20:59;100269.03;;;16.05;64.65
39949;BME280;29070;48.102;-1.652;2023-03-17T16:26:01;100263.50;;;16.06;64.12
39949;BME280;29070;48.102;-1.652;2023-03-17T16:31:15;100261.56;;;16.01;64.27
39949;BME280;29070;48.102;-1.652;2023-03-17T16:36:17;100254.44;;;15.85;63.54
39949;BME280;29070;48.102;-1.652;2023-03-17T16:41:24;100265.84;;;15.74;63.45
39949;BME280;29070;48.102;-1.652;2023-03-17T16:46:25;100257.34;;;15.72;64.00
39949;BME280;29070;48.102;-1.652;2023-03-17T16:51:26;100262.22;;;15.75;63.82
39949;BME280;29070;48.102;-1.652;2023-03-17T16:56:27;100254.81;;;15.77;64.11
39949;BME280;29070;48.102;-1.652;2023-03-17T17:01:28;100267.84;;;15.67;63.81
39949;BME280;29070;48.102;-1.652;2023-03-17T17:06:29;100266.97;;;15.44;63.77
39949;BME280;29070;48.102;-1.652;2023-03-17T17:11:29;100263.34;;;15.33;63.66
39949;BME280;29070;48.102;-1.652;2023-03-17T17:16:32;100262.44;;;15.28;63.75
39949;BME280;29070;48.102;-1.652;2023-03-17T17:21:33;100274.03;;;15.10;63.61
39949;BME280;29070;48.102;-1.652;2023-03-17T17:26:33;100261.06;;;14.96;63.74
39949;BME280;29070;48.102;-1.652;2023-03-17T17:31:34;100266.97;;;14.86;64.14
39949;BME280;29070;48.102;-1.652;2023-03-17T17:36:34;100273.66;;;14.77;64.50
39949;BME280;29070;48.102;-1.652;2023-03-17T17:41:35;100279.41;;;14.62;64.60
39949;BME280;29070;48.102;-1.652;2023-03-17T17:46:35;100276.84;;;14.56;64.88
39949;BME280;29070;48.102;-1.652;2023-03-17T17:51:36;100286.06;;;14.41;65.03
39949;BME280;29070;48.102;-1.652;2023-03-17T17:56:37;100294.34;;;14.33;65.17
39949;BME280;29070;48.102;-1.652;2023-03-17T18:01:39;100305.47;;;14.23;65.13
39949;BME280;29070;48.102;-1.652;2023-03-17T18:06:39;100309.59;;;14.19;65.30
39949;BME280;29070;48.102;-1.652;2023-03-17T18:11:40;100323.94;;;14.11;65.52
39949;BME280;29070;48.102;-1.652;2023-03-17T18:16:42;100325.66;;;14.06;65.66
39949;BME280;29070;48.102;-1.652;2023-03-17T18:21:42;100327.00;;;13.97;66.00
39949;BME280;29070;48.102;-1.652;2023-03-17T18:26:43;100327.47;;;13.94;66.28
39949;BME280;29070;48.102;-1.652;2023-03-17T18:31:49;100330.44;;;13.85;66.70
39949;BME280;29070;48.102;-1.652;2023-03-17T18:36:54;100322.75;;;13.84;66.82
39949;BME280;29070;48.102;-1.652;2023-03-17T18:41:56;100330.09;;;13.82;67.01
39949;BME280;29070;48.102;-1.652;2023-03-17T18:46:57;100332.94;;;13.80;67.11
39949;BME280;29070;48.102;-1.652;2023-03-17T18:51:57;100328.13;;;13.77;67.28
39949;BME280;29070;48.102;-1.652;2023-03-17T18:56:58;100331.00;;;13.76;67.53
39949;BME280;29070;48.102;-1.652;2023-03-17T19:01:59;100333.50;;;13.70;67.59
39949;BME280;29070;48.102;-1.652;2023-03-17T19:06:59;100329.59;;;13.73;67.71
39949;BME280;29070;48.102;-1.652;2023-03-17T19:12:00;100334.50;;;13.69;67.53
39949;BME280;29070;48.102;-1.652;2023-03-17T19:17:01;100346.13;;;13.68;67.96
39949;BME280;29070;48.102;-1.652;2023-03-17T19:22:02;100345.41;;;13.61;68.12
39949;BME280;29070;48.102;-1.652;2023-03-17T19:27:03;100346.50;;;13.53;68.34
39949;BME280;29070;48.102;-1.652;2023-03-17T19:32:04;100365.50;;;13.44;68.45
39949;BME280;29070;48.102;-1.652;2023-03-17T19:37:05;100365.22;;;13.33;68.51
39949;BME280;29070;48.102;-1.652;2023-03-17T19:42:05;100362.41;;;13.28;68.72
39949;BME280;29070;48.102;-1.652;2023-03-17T19:47:07;100355.97;;;13.24;68.83
39949;BME280;29070;48.102;-1.652;2023-03-17T19:52:08;100357.88;;;13.17;68.94
39949;BME280;29070;48.102;-1.652;2023-03-17T19:57:12;100353.72;;;13.09;69.22
39949;BME280;29070;48.102;-1.652;2023-03-17T20:02:14;100351.16;;;13.03;69.32
39949;BME280;29070;48.102;-1.652;2023-03-17T20:07:14;100341.47;;;12.96;69.42
39949;BME280;29070;48.102;-1.652;2023-03-17T20:12:15;100347.06;;;12.88;69.62
39949;BME280;29070;48.102;-1.652;2023-03-17T20:17:16;100342.06;;;12.80;69.95
39949;BME280;29070;48.102;-1.652;2023-03-17T20:22:17;100353.69;;;12.72;70.09
39949;BME280;29070;48.102;-1.652;2023-03-17T20:27:18;100347.28;;;12.68;70.44
39949;BME280;29070;48.102;-1.652;2023-03-17T20:32:18;100349.38;;;12.59;70.71
39949;BME280;29070;48.102;-1.652;2023-03-17T20:37:19;100359.47;;;12.63;70.68
39949;BME280;29070;48.102;-1.652;2023-03-17T20:42:19;100366.84;;;12.54;70.83
39949;BME280;29070;48.102;-1.652;2023-03-17T20:47:20;100363.59;;;12.52;70.97
39949;BME280;29070;48.102;-1.652;2023-03-17T20:52:21;100362.44;;;12.48;71.23
39949;BME280;29070;48.102;-1.652;2023-03-17T20:57:21;100371.13;;;12.48;71.17
39949;BME280;29070;48.102;-1.652;2023-03-17T21:02:21;100368.50;;;12.48;71.18
39949;BME280;29070;48.102;-1.652;2023-03-17T21:07:23;100370.31;;;12.48;71.22
39949;BME280;29070;48.102;-1.652;2023-03-17T21:12:23;100369.75;;;12.46;71.33
39949;BME280;29070;48.102;-1.652;2023-03-17T21:17:25;100374.78;;;12.47;71.37
39949;BME280;29070;48.102;-1.652;2023-03-17T21:22:26;100374.22;;;12.45;71.45
39949;BME280;29070;48.102;-1.652;2023-03-17T21:27:27;100372.59;;;12.44;71.54
39949;BME280;29070;48.102;-1.652;2023-03-17T21:32:28;100369.97;;;12.44;71.40
39949;BME280;29070;48.102;-1.652;2023-03-17T21:37:28;100364.53;;;12.39;71.25
39949;BME280;29070;48.102;-1.652;2023-03-17T21:42:28;100360.09;;;12.39;71.44
39949;BME280;29070;48.102;-1.652;2023-03-17T21:47:29;100353.63;;;12.35;71.56
39949;BME280;29070;48.102;-1.652;2023-03-17T21:52:29;100344.97;;;12.28;71.69
39949;BME280;29070;48.102;-1.652;2023-03-17T21:57:30;100351.50;;;12.26;71.48
39949;BME280;29070;48.102;-1.652;2023-03-17T22:02:30;100354.75;;;12.21;71.58
39949;BME280;29070;48.102;-1.652;2023-03-17T22:07:31;100344.91;;;12.16;71.85
39949;BME280;29070;48.102;-1.652;2023-03-17T22:12:33;100328.72;;;12.13;72.10
39949;BME280;29070;48.102;-1.652;2023-03-17T22:17:34;100334.00;;;12.13;72.09
39949;BME280;29070;48.102;-1.652;2023-03-17T22:22:35;100330.81;;;12.04;72.06
39949;BME280;29070;48.102;-1.652;2023-03-17T22:27:35;100340.13;;;12.00;72.26
39949;BME280;29070;48.102;-1.652;2023-03-17T22:32:37;100341.97;;;11.99;72.37
39949;BME280;29070;48.102;-1.652;2023-03-17T22:37:38;100336.13;;;11.97;72.54
39949;BME280;29070;48.102;-1.652;2023-03-17T22:42:40;100332.09;;;11.95;72.62
39949;BME280;29070;48.102;-1.652;2023-03-17T22:47:40;100343.84;;;11.92;72.71
39949;BME280;29070;48.102;-1.652;2023-03-17T22:52:41;100332.31;;;11.87;72.65
39949;BME280;29070;48.102;-1.652;2023-03-17T22:57:41;100322.44;;;11.82;72.97
39949;BME280;29070;48.102;-1.652;2023-03-17T23:02:43;100316.00;;;11.78;72.94
39949;BME280;29070;48.102;-1.652;2023-03-17T23:07:44;100313.34;;;11.78;72.88
39949;BME280;29070;48.102;-1.652;2023-03-17T23:12:44;100301.47;;;11.75;73.03
39949;BME280;29070;48.102;-1.652;2023-03-17T23:17:44;100314.81;;;11.74;73.20
39949;BME280;29070;48.102;-1.652;2023-03-17T23:22:46;100302.09;;;11.71;73.47
39949;BME280;29070;48.102;-1.652;2023-03-17T23:27:47;100298.66;;;11.70;73.50
39949;BME280;29070;48.102;-1.652;2023-03-17T23:32:47;100289.72;;;11.71;73.43
39949;BME280;29070;48.102;-1.652;2023-03-17T23:37:48;100288.56;;;11.67;73.29
39949;BME280;29070;48.102;-1.652;2023-03-17T23:42:48;100271.59;;;11.63;73.54
39949;BME280;29070;48.102;-1.652;2023-03-17T23:47:50;100266.75;;;11.60;73.40
39949;BME280;29070;48.102;-1.652;2023-03-17T23:52:51;100272.44;;;11.57;73.52
39949;BME280;29070;48.102;-1.652;2023-03-17T23:57:53;100271.25;;;11.53;73.56
